Time;durP1;ratioP1;P1;durP2;ratioP2;P2;SDS_P1;SDS_P2;PMS_P1;PMS_P2;Temp;Humidity;BMP_temperature;BMP_pressure;BME280_temperature;BME280_humidity;BME280_pressure;Samples;Min_cycle;Max_cycle;Signal;HPM_P1;HPM_P2
2023/06/30 00:01:30;;;;;;;7.00;6.50;;;;;;;15.17;100.00;63565.19;5043671;28;20226;-72
2023/06/30 00:03:58;;;;;;;7.03;6.32;;;;;;;15.20;100.00;63570.88;5043867;28;20240;-74
2023/06/30 00:06:25;;;;;;;6.55;5.95;;;;;;;15.17;100.00;63565.19;5055375;28;20227;-74
2023/06/30 00:08:52;;;;;;;7.20;6.70;;;;;;;15.14;100.00;63562.06;5048294;28;20201;-73
2023/06/30 00:11:23;;;;;;;6.75;6.28;;;;;;;15.11;100.00;63558.94;5043444;28;20286;-73
2023/06/30 00:13:52;;;;;;;6.68;6.15;;;;;;;15.11;100.00;63556.38;5045128;28;20369;-74
2023/06/30 00:16:19;;;;;;;5.90;5.50;;;;;;;15.12;100.00;63560.50;5044332;28;20260;-73
2023/06/30 00:18:47;;;;;;;6.88;6.13;;;;;;;15.16;100.00;63564.66;5046845;28;20218;-73
2023/06/30 00:21:15;;;;;;;6.70;6.25;;;;;;;15.15;100.00;63565.69;5049209;28;20224;-74
2023/06/30 00:23:42;;;;;;;5.72;5.43;;;;;;;15.11;100.00;63561.50;5063992;28;20296;-74
2023/06/30 00:26:10;;;;;;;5.88;5.57;;;;;;;15.07;100.00;63555.31;5057261;28;20218;-73
2023/06/30 00:28:37;;;;;;;6.70;6.20;;;;;;;15.05;100.00;63553.22;5053952;28;20233;-73
2023/06/30 00:31:04;;;;;;;6.68;6.18;;;;;;;14.97;100.00;63550.06;5052682;28;20225;-72
2023/06/30 00:33:31;;;;;;;7.10;6.50;;;;;;;14.96;100.00;63549.53;5063472;28;20278;-73
2023/06/30 00:35:59;;;;;;;6.72;6.30;;;;;;;14.92;100.00;63537.69;5047059;28;20229;-73
2023/06/30 00:38:26;;;;;;;7.10;6.60;;;;;;;14.79;100.00;63529.31;5056364;28;20205;-73
2023/06/30 00:40:53;;;;;;;6.85;6.35;;;;;;;14.76;100.00;63521.06;5057901;28;20281;-73
2023/06/30 00:43:20;;;;;;;6.65;6.15;;;;;;;14.77;100.00;63524.66;5049231;28;20271;-73
2023/06/30 00:45:47;;;;;;;6.47;5.90;;;;;;;14.76;100.00;63526.19;5056888;28;20223;-73
2023/06/30 00:48:17;;;;;;;6.63;6.22;;;;;;;14.79;100.00;63526.22;5053223;28;20476;-73
2023/06/30 00:50:44;;;;;;;6.45;6.05;;;;;;;14.76;100.00;63525.66;5061944;28;20225;-73
2023/06/30 00:53:13;;;;;;;7.30;6.80;;;;;;;14.72;100.00;63516.41;5046187;28;20202;-73
2023/06/30 00:55:41;;;;;;;7.65;6.53;;;;;;;14.62;100.00;63514.22;5052218;28;20222;-73
2023/06/30 00:58:10;;;;;;;7.30;6.70;;;;;;;14.64;100.00;63518.84;5048940;28;20281;-73
2023/06/30 01:00:37;;;;;;;6.70;6.10;;;;;;;14.64;100.00;63513.72;5047485;28;20260;-73
2023/06/30 01:03:13;;;;;;;6.03;5.63;;;;;;;14.57;100.00;63498.25;5049648;28;20238;-73
2023/06/30 01:05:48;;;;;;;6.38;5.88;;;;;;;14.56;100.00;63505.44;5046998;28;20227;-73
2023/06/30 01:08:24;;;;;;;7.43;6.82;;;;;;;14.41;100.00;63489.81;5045563;28;20200;-75
2023/06/30 01:10:53;;;;;;;8.23;6.40;;;;;;;14.48;100.00;63501.72;5046941;28;20557;-72
2023/06/30 01:13:20;;;;;;;7.82;7.22;;;;;;;14.50;100.00;63499.19;5046386;28;20197;-73
2023/06/30 01:15:48;;;;;;;6.97;6.38;;;;;;;14.50;100.00;63499.19;5047699;28;20225;-74
2023/06/30 01:18:19;;;;;;;6.60;6.10;;;;;;;14.45;100.00;63491.44;5054555;28;20213;-72
2023/06/30 01:20:47;;;;;;;6.75;6.28;;;;;;;14.43;100.00;63486.25;5064224;28;20267;-73
2023/06/30 01:23:21;;;;;;;6.20;5.80;;;;;;;14.49;100.00;63497.63;5065006;28;20264;-72
2023/06/30 01:25:49;;;;;;;7.07;6.38;;;;;;;14.40;100.00;63488.28;5055328;28;20265;-73
2023/06/30 01:28:17;;;;;;;6.88;6.28;;;;;;;14.44;100.00;63490.41;5067262;28;20425;-73
2023/06/30 01:30:44;;;;;;;6.55;6.07;;;;;;;14.49;100.00;63497.63;5062449;28;20424;-73
2023/06/30 01:33:11;;;;;;;6.97;6.45;;;;;;;14.48;100.00;63494.53;5066436;28;20220;-74
2023/06/30 01:35:38;;;;;;;6.68;6.05;;;;;;;14.50;100.00;63496.09;5060269;28;20217;-73
2023/06/30 01:38:05;;;;;;;6.63;6.22;;;;;;;14.47;100.00;63490.94;5065604;28;20220;-72
2023/06/30 01:40:34;;;;;;;6.22;5.82;;;;;;;14.25;100.00;63473.22;5046578;28;20244;-73
2023/06/30 01:43:02;;;;;;;6.00;5.60;;;;;;;14.46;100.00;63492.47;5045266;28;20226;-74
2023/06/30 01:45:30;;;;;;;6.50;6.00;;;;;;;14.42;100.00;63487.78;5045791;28;20245;-74
2023/06/30 01:47:58;;;;;;;6.28;5.88;;;;;;;14.39;100.00;63484.69;5055129;28;20215;-73
2023/06/30 01:50:29;;;;;;;7.95;5.90;;;;;;;14.33;100.00;63476.41;5066024;28;20217;-73
2023/06/30 01:52:56;;;;;;;6.68;6.28;;;;;;;14.32;100.00;63479.97;5054021;28;20442;-74
2023/06/30 01:55:23;;;;;;;6.47;5.82;;;;;;;14.33;100.00;63478.44;5051757;28;20225;-72
2023/06/30 01:57:52;;;;;;;8.20;6.43;;;;;;;14.28;100.00;63473.78;5046197;28;20197;-73
2023/06/30 02:00:19;;;;;;;6.18;5.72;;;;;;;14.23;100.00;63465.47;5046152;28;20206;-72
2023/06/30 02:02:46;;;;;;;6.45;6.03;;;;;;;14.17;100.00;63462.31;5062915;28;20235;-73
2023/06/30 02:05:13;;;;;;;7.40;6.90;;;;;;;14.13;100.00;63463.31;5060742;28;20206;-73
2023/06/30 02:07:40;;;;;;;7.15;6.55;;;;;;;14.11;100.00;63455.59;5060068;28;20221;-73
2023/06/30 02:10:11;;;;;;;7.32;6.55;;;;;;;14.06;100.00;63450.41;5050727;28;20434;-72
2023/06/30 02:12:38;;;;;;;6.95;6.30;;;;;;;14.05;100.00;63449.88;5055234;28;20205;-73
2023/06/30 02:15:08;;;;;;;8.15;6.65;;;;;;;14.06;100.00;63447.84;5051678;28;20728;-73
2023/06/30 02:17:35;;;;;;;6.50;6.10;;;;;;;14.05;100.00;63449.88;5047516;28;20208;-73
2023/06/30 02:20:05;;;;;;;7.15;6.60;;;;;;;14.03;100.00;63447.78;5050495;28;20217;-73
2023/06/30 02:22:33;;;;;;;7.47;6.78;;;;;;;14.00;100.00;63444.69;5051080;28;20218;-74
2023/06/30 02:25:00;;;;;;;11.05;7.30;;;;;;;13.97;100.00;63446.16;5057874;28;20252;-74
2023/06/30 02:27:28;;;;;;;6.10;5.70;;;;;;;13.95;100.00;63439.50;5058822;28;20283;-73
2023/06/30 02:29:56;;;;;;;6.50;6.10;;;;;;;13.97;100.00;63441.03;5065515;28;20254;-73
2023/06/30 02:32:25;;;;;;;6.63;6.13;;;;;;;13.91;100.00;63437.88;5051147;28;20276;-74
2023/06/30 02:34:52;;;;;;;6.28;5.88;;;;;;;13.90;100.00;63439.41;5045746;28;20209;-73
2023/06/30 02:37:19;;;;;;;7.32;6.72;;;;;;;13.90;100.00;63439.41;5044689;28;20281;-73
2023/06/30 02:39:46;;;;;;;6.13;5.72;;;;;;;13.89;100.00;63438.38;5060213;28;20249;-73
2023/06/30 02:42:13;;;;;;;6.60;6.20;;;;;;;13.82;100.00;63426.50;5057940;28;20260;-74
2023/06/30 02:44:40;;;;;;;6.78;6.30;;;;;;;13.89;100.00;63435.84;5052370;28;20248;-74
2023/06/30 02:47:07;;;;;;;6.55;5.97;;;;;;;13.84;100.00;63431.16;5063375;28;20226;-72
2023/06/30 02:49:36;;;;;;;7.03;6.53;;;;;;;13.82;100.00;63423.94;5066685;28;20210;-73
2023/06/30 02:52:03;;;;;;;7.30;6.70;;;;;;;13.82;100.00;63431.13;5059163;28;20576;-73
2023/06/30 02:54:29;;;;;;;6.72;6.13;;;;;;;13.80;100.00;63423.94;5057530;28;20198;-73
2023/06/30 02:56:57;;;;;;;7.18;6.68;;;;;;;13.83;100.00;63430.13;5049479;28;20226;-74
2023/06/30 02:59:24;;;;;;;7.13;6.63;;;;;;;13.82;100.00;63423.94;5045403;28;20525;-73
2023/06/30 03:01:51;;;;;;;6.72;6.20;;;;;;;13.82;100.00;63426.00;5044925;28;20221;-73
2023/06/30 03:04:18;;;;;;;8.75;6.80;;;;;;;13.79;100.00;63425.97;5044632;28;20233;-74
2023/06/30 03:06:46;;;;;;;6.75;6.35;;;;;;;13.85;100.00;63434.75;5060089;28;20224;-73
2023/06/30 03:09:13;;;;;;;7.38;6.60;;;;;;;13.82;100.00;63429.06;5055190;28;20208;-73
2023/06/30 03:11:40;;;;;;;7.60;6.95;;;;;;;13.90;100.00;63436.88;5044490;28;20222;-74
2023/06/30 03:14:08;;;;;;;7.30;6.75;;;;;;;13.88;100.00;63434.78;5044282;28;20541;-73
2023/06/30 03:16:36;;;;;;;7.72;7.00;;;;;;;14.09;100.00;63456.06;5046623;28;20310;-74
2023/06/30 03:19:03;;;;;;;6.53;6.13;;;;;;;14.16;100.00;63463.34;5054909;28;20205;-73
2023/06/30 03:21:30;;;;;;;6.35;5.85;;;;;;;14.24;100.00;63469.06;5062042;28;20522;-73
2023/06/30 03:23:58;;;;;;;7.05;6.35;;;;;;;14.22;100.00;63467.00;5053838;28;20236;-74
2023/06/30 03:26:25;;;;;;;6.82;6.32;;;;;;;14.29;100.00;63474.31;5045916;28;20233;-73
2023/06/30 03:28:52;;;;;;;7.43;6.93;;;;;;;14.37;100.00;63490.28;5061526;28;20365;-73
2023/06/30 03:31:18;;;;;;;6.97;6.47;;;;;;;14.42;100.00;63487.78;5043708;28;20222;-74
2023/06/30 03:33:45;;;;;;;7.38;6.82;;;;;;;14.47;100.00;63498.09;5050100;28;20197;-72
2023/06/30 03:36:12;;;;;;;6.38;5.97;;;;;;;14.49;100.00;63498.16;5048729;28;20252;-72
2023/06/30 03:38:39;;;;;;;8.35;7.65;;;;;;;14.45;100.00;63490.91;5058377;28;20261;-75
2023/06/30 03:41:08;;;;;;;9.07;7.70;;;;;;;14.36;100.00;63481.56;5045008;28;20248;-72
2023/06/30 03:43:35;;;;;;;10.15;9.25;;;;;;;14.45;100.00;63491.44;5044491;28;20230;-72
2023/06/30 03:46:02;;;;;;;8.77;8.07;;;;;;;14.58;100.00;63504.41;5050779;28;20221;-72
2023/06/30 03:48:29;;;;;;;9.02;8.13;;;;;;;14.56;100.00;63500.31;5055673;28;20201;-72
2023/06/30 03:50:56;;;;;;;9.90;8.93;;;;;;;14.51;100.00;63502.78;5057548;28;20463;-73
2023/06/30 03:53:23;;;;;;;9.80;9.00;;;;;;;14.62;100.00;63514.22;5043808;28;20206;-74
2023/06/30 03:55:50;;;;;;;8.90;7.90;;;;;;;14.70;100.00;63516.88;5054931;28;20243;-73
2023/06/30 03:58:18;;;;;;;8.77;8.07;;;;;;;14.70;100.00;63522.00;5046633;28;20209;-73
2023/06/30 04:00:45;;;;;;;8.55;7.80;;;;;;;14.71;100.00;63517.91;5047641;28;20267;-73
2023/06/30 04:03:12;;;;;;;8.73;7.90;;;;;;;14.82;100.00;63534.47;5045940;28;20247;-73
2023/06/30 04:05:39;;;;;;;8.25;7.65;;;;;;;14.90;100.00;63537.66;5058962;28;20220;-72
2023/06/30 04:08:08;;;;;;;8.40;7.60;;;;;;;14.93;100.00;63543.31;5056691;28;20197;-73
2023/06/30 04:10:35;;;;;;;9.30;7.95;;;;;;;14.75;100.00;63522.59;5060347;28;20217;-72
2023/06/30 04:13:06;;;;;;;8.20;7.60;;;;;;;14.71;100.00;63523.03;5052555;28;20256;-73
2023/06/30 04:15:35;;;;;;;7.90;7.30;;;;;;;14.85;100.00;63532.97;5053733;28;20259;-73
2023/06/30 04:18:02;;;;;;;9.30;8.50;;;;;;;14.87;100.00;63540.19;5053765;28;20198;-71
2023/06/30 04:20:29;;;;;;;9.48;8.57;;;;;;;14.93;100.00;63541.28;5057157;28;20276;-74
2023/06/30 04:22:56;;;;;;;8.80;8.07;;;;;;;14.98;100.00;63551.09;5063795;28;20258;-73
2023/06/30 04:25:23;;;;;;;15.73;9.63;;;;;;;15.05;100.00;63551.19;5054897;28;20287;-73
2023/06/30 04:27:50;;;;;;;11.68;9.38;;;;;;;15.09;100.00;63559.97;5049505;28;20193;-74
2023/06/30 04:30:17;;;;;;;11.63;10.48;;;;;;;15.09;100.00;63559.97;5055210;28;20214;-73
2023/06/30 04:32:46;;;;;;;14.55;10.93;;;;;;;15.17;100.00;63562.63;5053784;28;20217;-73
2023/06/30 04:35:14;;;;;;;12.52;11.27;;;;;;;15.12;100.00;63563.06;5050838;28;20217;-74
2023/06/30 04:37:41;;;;;;;13.68;11.30;;;;;;;15.27;100.00;63580.72;5052560;28;20217;-73
2023/06/30 04:40:10;;;;;;;11.82;10.60;;;;;;;15.36;100.00;63587.50;5067346;28;20219;-74
2023/06/30 04:42:37;;;;;;;13.57;11.05;;;;;;;15.34;100.00;63588.50;5049073;28;20203;-73
2023/06/30 04:45:06;;;;;;;12.75;10.93;;;;;;;15.44;100.00;63596.38;5048948;28;20549;-74
2023/06/30 04:47:33;;;;;;;12.65;10.73;;;;;;;15.53;100.00;63603.13;5054350;28;20216;-73
2023/06/30 04:50:02;;;;;;;12.65;11.32;;;;;;;15.56;100.00;63603.69;5048548;28;20213;-73
2023/06/30 04:52:29;;;;;;;10.98;9.98;;;;;;;15.59;100.00;63611.94;5056023;28;20220;-74
2023/06/30 04:54:57;;;;;;;12.38;11.05;;;;;;;15.62;100.00;63612.50;5053657;28;20198;-73
2023/06/30 04:57:24;;;;;;;14.43;11.05;;;;;;;15.75;100.00;63631.16;5057562;28;20271;-73
2023/06/30 04:59:52;;;;;;;17.70;12.38;;;;;;;15.69;100.00;63621.81;5046911;28;20213;-74
2023/06/30 05:02:19;;;;;;;13.13;11.65;;;;;;;15.77;100.00;63630.16;5046685;28;20233;-73
2023/06/30 05:04:46;;;;;;;12.10;10.90;;;;;;;16.01;100.00;63653.03;5053040;28;20282;-75
2023/06/30 05:07:14;;;;;;;12.52;11.32;;;;;;;16.17;100.00;63669.69;5048806;28;20225;-75
2023/06/30 05:09:41;;;;;;;11.43;10.40;;;;;;;16.12;100.00;63663.97;5051614;28;20228;-74
2023/06/30 05:12:10;;;;;;;12.00;10.82;;;;;;;16.22;100.00;63676.94;5064039;28;20232;-75
2023/06/30 05:14:37;;;;;;;12.75;10.98;;;;;;;16.36;100.00;63693.56;5063138;28;20216;-75
2023/06/30 05:17:04;;;;;;;12.00;10.73;;;;;;;16.40;100.00;63698.22;5050548;28;20533;-75
2023/06/30 05:19:32;;;;;;;11.98;10.93;;;;;;;16.30;100.00;63682.69;5051991;28;20248;-74
2023/06/30 05:21:58;;;;;;;10.95;9.95;;;;;;;16.37;100.00;63687.41;5047620;28;20418;-74
2023/06/30 05:24:27;;;;;;;11.52;10.05;;;;;;;16.48;100.00;63698.84;5067773;28;20228;-74
2023/06/30 05:26:56;;;;;;;16.02;11.40;;;;;;;16.49;100.00;63707.63;5064261;28;20258;-75
2023/06/30 05:29:23;;;;;;;10.73;9.82;;;;;;;16.49;100.00;63702.47;5052459;28;20267;-74
2023/06/30 05:31:50;;;;;;;11.20;9.88;;;;;;;16.59;100.00;63710.31;5047079;28;20244;-75
2023/06/30 05:34:17;;;;;;;12.07;10.88;;;;;;;16.78;100.00;63729.56;5047382;28;20273;-75
2023/06/30 05:36:44;;;;;;;12.38;10.63;;;;;;;16.85;100.00;63739.94;5050117;28;20221;-73
2023/06/30 05:39:12;;;;;;;10.98;9.88;;;;;;;16.97;100.00;63757.56;5064247;28;20360;-74
2023/06/30 05:41:40;;;;;;;14.85;10.75;;;;;;;17.14;100.00;63769.59;5051652;28;20298;-73
2023/06/30 05:44:07;;;;;;;10.43;9.52;;;;;;;17.15;100.00;63768.56;5055774;28;20217;-75
2023/06/30 05:46:35;;;;;;;12.45;10.70;;;;;;;17.11;100.00;63772.16;5060106;28;20220;-75
2023/06/30 05:49:05;;;;;;;11.20;10.20;;;;;;;17.45;100.00;63806.50;5064292;28;20210;-75
2023/06/30 05:51:32;;;;;;;10.13;9.23;;;;;;;17.75;100.00;63833.13;5047878;28;20284;-77
2023/06/30 05:53:59;;;;;;;9.88;8.98;;;;;;;17.81;100.00;63838.88;5051281;28;20219;-77
2023/06/30 05:56:26;;;;;;;10.15;9.20;;;;;;;17.87;100.00;63845.63;5063911;28;20224;-77
2023/06/30 05:58:55;;;;;;;11.02;9.93;;;;;;;17.68;100.00;63827.91;5054215;28;20201;-76
2023/06/30 06:01:22;;;;;;;10.45;9.45;;;;;;;17.85;100.00;63843.03;5054722;28;20419;-77
2023/06/30 06:03:49;;;;;;;11.10;10.10;;;;;;;17.92;100.00;63856.00;5063594;28;20200;-76
2023/06/30 06:06:16;;;;;;;16.48;11.18;;;;;;;17.83;100.00;63844.03;5055551;28;20577;-76
2023/06/30 06:08:46;;;;;;;10.98;9.95;;;;;;;17.85;100.00;63848.69;5054677;28;20292;-75
2023/06/30 06:11:13;;;;;;;13.23;10.10;;;;;;;17.90;100.00;63845.66;5061543;28;20459;-75
2023/06/30 06:13:41;;;;;;;12.95;9.82;;;;;;;17.88;100.00;63851.28;5057202;28;20197;-79
2023/06/30 06:16:09;;;;;;;15.43;10.48;;;;;;;18.06;100.00;63864.91;5049347;28;20246;-76
2023/06/30 06:18:36;;;;;;;14.15;10.13;;;;;;;17.95;100.00;63856.00;5060787;28;20198;-77
2023/06/30 06:21:04;;;;;;;14.50;11.23;;;;;;;17.89;100.00;63847.72;5057793;28;20275;-77
2023/06/30 06:23:32;;;;;;;14.30;10.52;;;;;;;17.96;100.00;63859.63;5047741;28;20201;-76
2023/06/30 06:25:59;;;;;;;11.35;10.38;;;;;;;17.98;100.00;63856.56;5050557;28;20260;-76
2023/06/30 06:28:26;;;;;;;15.63;10.20;;;;;;;18.04;100.00;63865.38;5049733;28;20410;-75
2023/06/30 06:30:53;;;;;;;11.05;9.63;;;;;;;18.11;99.66;63875.25;5050605;28;20228;-75
2023/06/30 06:33:21;;;;;;;12.43;11.15;;;;;;;18.18;100.00;63879.97;5053676;28;20559;-76
2023/06/30 06:35:51;;;;;;;11.77;10.57;;;;;;;18.28;98.21;63887.81;5048652;28;20221;-75
2023/06/30 06:38:18;;;;;;;17.52;9.50;;;;;;;18.43;100.00;63906.03;5048014;28;20237;-76
2023/06/30 06:40:46;;;;;;;14.25;10.30;;;;;;;18.60;98.41;63925.81;5056961;28;20303;-76
2023/06/30 06:43:13;;;;;;;13.55;10.88;;;;;;;18.66;95.54;63926.91;5057986;28;20192;-76
2023/06/30 06:45:41;;;;;;;19.60;11.48;;;;;;;18.61;96.46;63922.22;5052697;28;20226;-77
2023/06/30 06:48:21;;;;;;;12.27;10.43;;;;;;;18.76;96.00;63937.34;5059541;28;20205;-77
2023/06/30 06:50:50;;;;;;;13.95;11.13;;;;;;;18.91;93.98;63950.91;5050072;28;20216;-76
2023/06/30 06:53:22;;;;;;;11.50;10.18;;;;;;;19.15;93.58;63981.09;5056297;28;20201;-75
2023/06/30 06:55:50;;;;;;;13.45;11.18;;;;;;;19.14;92.30;63979.53;5048443;28;20221;-75
2023/06/30 06:58:18;;;;;;;18.92;10.43;;;;;;;19.20;94.33;63988.38;5045498;28;20564;-75
2023/06/30 07:00:46;;;;;;;12.75;10.20;;;;;;;19.17;91.44;63982.66;5053693;28;20232;-75
2023/06/30 07:03:13;;;;;;;11.55;10.27;;;;;;;18.97;91.47;63959.22;5048433;28;20196;-74
2023/06/30 07:05:43;;;;;;;10.45;9.43;;;;;;;19.17;89.56;63983.16;5055319;28;20232;-76
2023/06/30 07:08:10;;;;;;;10.20;9.30;;;;;;;19.27;85.91;63991.03;5061783;28;20235;-75
2023/06/30 07:10:37;;;;;;;10.43;8.80;;;;;;;19.37;82.48;64006.13;5061714;28;20599;-76
2023/06/30 07:13:05;;;;;;;8.95;8.15;;;;;;;19.53;82.39;64017.63;5053998;28;20432;-77
2023/06/30 07:15:32;;;;;;;13.27;8.77;;;;;;;19.79;85.32;64049.41;5052276;28;20250;-77
2023/06/30 07:18:00;;;;;;;11.38;8.95;;;;;;;20.04;84.32;64070.84;5048498;28;20208;-76
2023/06/30 07:20:27;;;;;;;9.60;8.30;;;;;;;20.13;84.11;64077.66;5051216;28;20288;-76
2023/06/30 07:22:56;;;;;;;10.10;9.02;;;;;;;20.29;79.28;64099.53;5054050;28;20219;-74
2023/06/30 07:25:24;;;;;;;9.95;8.05;;;;;;;20.20;74.30;64090.16;5049841;28;20247;-74
2023/06/30 07:27:53;;;;;;;12.15;7.72;;;;;;;20.25;73.46;64090.19;5056768;28;20212;-76
2023/06/30 07:30:22;;;;;;;7.68;6.82;;;;;;;20.36;71.33;64112.00;5044770;28;20275;-75
2023/06/30 07:32:49;;;;;;;7.72;6.93;;;;;;;20.39;71.36;64109.44;5053103;28;20205;-75
2023/06/30 07:35:16;;;;;;;7.50;6.90;;;;;;;20.47;72.37;64118.31;5060871;28;20396;-75
2023/06/30 07:37:43;;;;;;;10.77;7.68;;;;;;;20.63;76.29;64132.44;5049428;28;20197;-76
2023/06/30 07:40:13;;;;;;;11.52;7.30;;;;;;;20.82;71.83;64151.75;5060006;28;20200;-77
2023/06/30 07:42:40;;;;;;;7.82;7.03;;;;;;;20.81;71.37;64153.28;5053345;28;20253;-75
2023/06/30 07:45:10;;;;;;;7.47;6.75;;;;;;;20.94;68.67;64164.28;5054744;28;20235;-76
2023/06/30 07:47:37;;;;;;;7.97;7.05;;;;;;;20.99;71.48;64172.09;5051501;28;20200;-76
2023/06/30 07:50:09;;;;;;;6.22;5.78;;;;;;;21.11;66.90;64184.09;5053451;28;20213;-76
2023/06/30 07:52:37;;;;;;;4.60;4.30;;;;;;;21.12;63.31;64188.25;5057719;28;20263;-75
2023/06/30 07:55:05;;;;;;;3.72;3.53;;;;;;;20.94;59.44;64169.44;5053675;28;20201;-76
2023/06/30 07:57:34;;;;;;;5.65;4.25;;;;;;;20.91;58.59;64163.22;5054663;28;20201;-75
2023/06/30 08:00:00;;;;;;;4.68;3.83;;;;;;;21.00;60.57;64175.22;5057808;28;20219;-75
2023/06/30 08:02:28;;;;;;;5.03;4.53;;;;;;;21.24;60.07;64198.22;5053825;28;20216;-75
2023/06/30 08:04:55;;;;;;;6.13;4.25;;;;;;;21.11;59.19;64187.22;5055181;28;20239;-75
2023/06/30 08:07:21;;;;;;;4.25;3.45;;;;;;;21.30;59.32;64206.53;5052569;28;20288;-77
2023/06/30 08:09:48;;;;;;;4.43;3.50;;;;;;;21.56;58.76;64229.03;5052538;28;20358;-77
2023/06/30 08:12:16;;;;;;;3.75;3.55;;;;;;;21.70;58.31;64243.16;5054896;28;20212;-76
2023/06/30 08:14:44;;;;;;;4.25;3.78;;;;;;;21.70;57.06;64251.44;5054926;28;20228;-76
2023/06/30 08:17:11;;;;;;;4.38;4.10;;;;;;;21.78;56.77;64254.63;5058219;28;20287;-75
2023/06/30 08:19:41;;;;;;;4.57;4.13;;;;;;;21.67;55.52;64237.41;5056525;28;20231;-75
2023/06/30 08:22:09;;;;;;;4.50;4.18;;;;;;;21.70;54.75;64250.91;5050032;28;20252;-76
2023/06/30 08:24:36;;;;;;;4.78;3.42;;;;;;;21.76;52.81;64252.53;5055192;28;20228;-76
2023/06/30 08:27:05;;;;;;;3.42;3.10;;;;;;;21.85;52.51;64260.91;5049104;28;20287;-76
2023/06/30 08:29:32;;;;;;;2.65;2.45;;;;;;;22.02;50.54;64281.78;5051872;28;20264;-76
2023/06/30 08:32:01;;;;;;;2.80;2.60;;;;;;;22.14;49.99;64291.22;5055878;28;20223;-75
2023/06/30 08:34:28;;;;;;;3.55;3.30;;;;;;;22.21;50.95;64293.84;5051847;28;20209;-76
2023/06/30 08:36:55;;;;;;;3.70;3.20;;;;;;;22.01;49.98;64280.75;5052688;28;20229;-75
2023/06/30 08:39:22;;;;;;;4.63;3.30;;;;;;;21.90;51.82;64266.66;5049166;28;20206;-77
2023/06/30 08:41:50;;;;;;;5.03;3.70;;;;;;;21.96;53.96;64275.00;5048930;28;20232;-76
2023/06/30 08:44:21;;;;;;;4.63;3.10;;;;;;;21.75;54.68;64254.09;5056739;28;20402;-74
2023/06/30 08:46:49;;;;;;;5.35;4.63;;;;;;;21.78;56.52;64254.09;5051412;28;20262;-76
2023/06/30 08:49:17;;;;;;;35.25;16.45;;;;;;;22.03;55.69;64279.72;5053206;28;20525;-76
2023/06/30 08:51:46;;;;;;;5.32;4.93;;;;;;;22.19;54.24;64296.97;5050860;28;20234;-73
2023/06/30 08:54:14;;;;;;;45.53;17.55;;;;;;;22.08;54.68;64279.75;5054446;28;20425;-76
2023/06/30 08:56:41;;;;;;;6.10;5.47;;;;;;;22.23;54.39;64303.72;5050028;28;20252;-75
2023/06/30 08:59:09;;;;;;;12.82;7.25;;;;;;;22.37;53.82;64317.84;5056202;28;20210;-76
2023/06/30 09:01:38;;;;;;;5.90;5.35;;;;;;;22.42;55.38;64317.88;5048686;28;20225;-76
2023/06/30 09:04:06;;;;;;;4.85;4.45;;;;;;;22.32;54.71;64310.03;5048613;28;20264;-74
2023/06/30 09:06:38;;;;;;;5.25;4.75;;;;;;;22.19;54.65;64293.84;5055209;28;20236;-76
2023/06/30 09:09:11;;;;;;;10.27;6.63;;;;;;;22.47;55.74;64330.88;5055562;28;20216;-76
2023/06/30 09:11:40;;;;;;;5.63;5.00;;;;;;;22.72;54.79;64352.38;5056347;28;20213;-74
2023/06/30 09:14:09;;;;;;;5.60;5.15;;;;;;;22.60;53.95;64341.91;5050978;28;20201;-76
2023/06/30 09:16:36;;;;;;;6.55;5.10;;;;;;;22.70;53.64;64349.78;5049921;28;20224;-75
2023/06/30 09:19:04;;;;;;;8.30;4.93;;;;;;;22.66;53.57;64342.97;5051695;28;20197;-75
2023/06/30 09:21:31;;;;;;;6.65;5.13;;;;;;;22.62;54.74;64341.91;5057438;28;20557;-75
2023/06/30 09:24:00;;;;;;;5.32;4.82;;;;;;;22.63;53.95;64345.03;5049650;28;20217;-76
2023/06/30 09:26:30;;;;;;;5.10;4.75;;;;;;;22.82;56.14;64359.72;5050951;28;20288;-74
2023/06/30 09:28:57;;;;;;;5.47;4.53;;;;;;;22.66;52.83;64346.09;5051065;28;20205;-76
2023/06/30 09:31:32;;;;;;;6.95;4.93;;;;;;;22.72;53.21;64351.88;5054134;28;20236;-75
2023/06/30 09:34:11;;;;;;;5.40;4.90;;;;;;;22.56;53.44;64332.53;5051951;28;20221;-75
2023/06/30 09:36:38;;;;;;;5.43;4.93;;;;;;;22.25;54.39;64302.69;5055194;28;20222;-77
2023/06/30 09:39:11;;;;;;;5.90;4.70;;;;;;;22.56;54.32;64335.13;5053831;28;20272;-75
2023/06/30 09:41:37;;;;;;;4.80;4.50;;;;;;;22.59;53.85;64340.88;5048751;28;20213;-76
2023/06/30 09:44:05;;;;;;;4.68;4.38;;;;;;;22.60;53.16;64339.84;5052957;28;20521;-76
2023/06/30 09:46:32;;;;;;;5.32;4.80;;;;;;;22.74;53.75;64348.75;5049101;28;20443;-76
2023/06/30 09:49:01;;;;;;;6.20;4.75;;;;;;;23.01;53.61;64379.59;5051507;28;20559;-74
2023/06/30 09:51:31;;;;;;;5.38;4.88;;;;;;;23.07;53.61;64390.53;5049035;28;20288;-74
2023/06/30 09:53:58;;;;;;;7.60;5.70;;;;;;;23.05;51.92;64388.44;5056749;28;20260;-75
2023/06/30 09:56:28;;;;;;;5.30;4.90;;;;;;;23.12;52.41;64391.09;5052310;28;20218;-74
2023/06/30 09:58:58;;;;;;;5.10;4.57;;;;;;;23.07;52.51;64388.47;5051543;28;20193;-75
2023/06/30 10:01:26;;;;;;;5.93;5.43;;;;;;;23.14;51.76;64393.19;5048517;28;20415;-76
2023/06/30 10:03:54;;;;;;;9.35;5.60;;;;;;;23.52;54.09;64435.03;5044979;28;20205;-76
2023/06/30 10:06:24;;;;;;;5.28;4.88;;;;;;;23.71;51.83;64454.91;5047062;28;20257;-76
2023/06/30 10:08:52;;;;;;;6.65;5.15;;;;;;;23.54;51.17;64435.03;5055205;28;20273;-74
2023/06/30 10:11:22;;;;;;;5.30;4.95;;;;;;;23.76;50.52;64458.06;5058726;28;20220;-76
2023/06/30 10:13:53;;;;;;;5.95;5.47;;;;;;;24.02;49.51;64485.28;5052272;28;20201;-76
2023/06/30 10:16:22;;;;;;;4.97;4.60;;;;;;;24.23;51.83;64511.94;5050033;28;20221;-76
2023/06/30 10:18:51;;;;;;;7.28;5.10;;;;;;;24.12;50.50;64497.31;5056771;28;20212;-76
2023/06/30 10:21:18;;;;;;;5.15;4.70;;;;;;;23.71;51.19;64458.03;5049120;28;20221;-76
2023/06/30 10:23:48;;;;;;;5.10;4.60;;;;;;;23.80;52.54;64466.94;5049799;28;20198;-75
2023/06/30 10:26:19;;;;;;;5.45;5.07;;;;;;;23.92;50.19;64476.88;5054900;28;20240;-76
2023/06/30 10:28:48;;;;;;;5.38;4.85;;;;;;;23.84;49.58;64471.66;5056081;28;20202;-76
2023/06/30 10:31:17;;;;;;;5.15;4.75;;;;;;;23.89;51.37;64474.28;5046387;28;20233;-76
2023/06/30 10:33:44;;;;;;;7.60;4.93;;;;;;;24.20;52.78;64505.69;5047018;28;20477;-76
2023/06/30 10:36:13;;;;;;;6.25;5.68;;;;;;;24.11;50.29;64496.78;5045105;28;20267;-76
2023/06/30 10:38:42;;;;;;;6.38;5.53;;;;;;;23.90;51.55;64472.19;5053648;28;20221;-76
2023/06/30 10:41:14;;;;;;;4.82;4.53;;;;;;;24.05;51.38;64487.38;5076922;28;20220;-76
2023/06/30 10:44:09;;;;;;;6.20;5.03;;;;;;;24.18;51.67;64506.72;5049577;28;20212;-74
2023/06/30 10:46:56;;;;;;;7.35;5.50;;;;;;;24.26;50.73;64517.72;5048359;28;20224;-75
2023/06/30 10:49:29;;;;;;;5.63;5.22;;;;;;;24.04;50.52;64492.06;5046935;28;20204;-77
2023/06/30 10:51:57;;;;;;;6.95;5.40;;;;;;;24.27;51.44;64513.00;5055693;28;20231;-77
2023/06/30 10:54:26;;;;;;;5.50;5.10;;;;;;;24.50;49.57;64537.09;5055961;28;20235;-75
2023/06/30 10:57:06;;;;;;;6.05;5.65;;;;;;;24.10;49.66;64495.75;5047787;28;20228;-74
2023/06/30 10:59:38;;;;;;;6.60;5.38;;;;;;;24.23;53.08;64508.84;5047506;28;20202;-75
2023/06/30 11:02:14;;;;;;;5.90;5.30;;;;;;;24.63;53.31;64548.09;5054808;28;20217;-76
2023/06/30 11:04:42;;;;;;;5.63;5.18;;;;;;;24.71;48.90;64564.31;5046864;28;20213;-76
2023/06/30 11:07:10;;;;;;;6.20;5.60;;;;;;;24.54;49.24;64541.81;5046371;28;20279;-75
2023/06/30 11:09:57;;;;;;;7.32;5.63;;;;;;;24.49;48.03;64541.28;5057892;28;20197;-73
2023/06/30 11:12:25;;;;;;;6.00;5.50;;;;;;;24.76;48.62;64564.88;5053629;28;20544;-75
2023/06/30 11:14:54;;;;;;;5.82;5.35;;;;;;;24.73;47.69;64564.31;5063469;28;20200;-77
2023/06/30 11:17:24;;;;;;;6.57;5.03;;;;;;;24.74;47.53;64562.25;5054142;28;20236;-75
2023/06/30 11:20:11;;;;;;;5.60;5.28;;;;;;;25.01;47.09;64590.53;5050950;28;20200;-77
2023/06/30 11:22:39;;;;;;;5.13;4.72;;;;;;;25.11;48.91;64603.59;5046323;28;20216;-76
2023/06/30 11:25:09;;;;;;;4.57;4.18;;;;;;;25.06;48.10;64598.91;5046562;28;20275;-76
2023/06/30 11:27:36;;;;;;;6.18;5.32;;;;;;;24.94;47.68;64586.31;5044785;28;20452;-75
2023/06/30 11:30:04;;;;;;;5.38;4.88;;;;;;;25.22;48.76;64615.13;5045181;28;20201;-75